Kezdőlap
METAR-TAF:

METAR-TAF

Repülőterek :

Elkhart-Morton County Airport

Elkhart, Kansas, Amerikai Egyesült Államok

földrajzi szélesség: 37-00N, földrajzi hosszúság: 101-54W, magasság: 1099 m

Jelenlegi meteorológiai megfigyelések

A jelentés 23 perccel ezelõtt készült, 05:35 UTC
Dél-délnyugati szél 17 kt
Hőmérséklet 17°C
Páratartalom 32%
Légköri nyomás 1017 hPa
Látótávolság: 16.1 km
Derült ég

METAR: KEHA 130535Z AUTO 20017KT 10SM CLR 17/00 A3004 RMK AO2 T01671002

Idő: 00:58 (05:58 UTC)


TAF: hiányzik

Meteorológiai megfigyelések és előrejelzések több, mint 4000 repülőtéren (METAR és TAF jelentéseket).

A térképen piros és sárga pontok jelzik az elérhető meteorológiai állomásokat.

Mozgassa az egeret a pont fölött, hogy megjelenjen az állomás neve.

Azután kattintson az időjárási megfigyelések és előrejelzések megtekintéséhez.

A térkép megváltoztatása: kattintson a fekete keresztel jelölt zöld gombra ráközelítéshez, a vonallal jelölt zöld gombra távolításhoz, vagy a zöld nyilakra a szomszédos térképek eléréséhez.


METAR-TAF: